createdAt,value
2023-06-23T00:03:24.044Z,3.10
2023-06-23T00:08:26.511Z,3.00
2023-06-23T00:13:28.936Z,3.67
2023-06-23T00:18:32.866Z,3.43
2023-06-23T00:23:36.306Z,3.10
2023-06-23T00:28:38.930Z,3.40
2023-06-23T00:33:43.542Z,3.10
2023-06-23T00:38:46.239Z,3.20
2023-06-23T00:43:54.664Z,2.73
2023-06-23T00:48:57.220Z,3.50
2023-06-23T00:53:59.966Z,3.70
2023-06-23T00:59:04.100Z,2.73
2023-06-23T01:04:06.683Z,3.43
2023-06-23T01:09:17.099Z,2.90
2023-06-23T01:14:24.933Z,3.10
2023-06-23T01:20:26.102Z,2.83
2023-06-23T01:25:49.092Z,3.53
2023-06-23T01:30:56.236Z,3.23
2023-06-23T01:36:09.890Z,3.40
2023-06-23T01:41:25.693Z,3.20
2023-06-23T01:46:36.498Z,3.40
2023-06-23T01:51:44.652Z,3.33
2023-06-23T01:56:48.175Z,4.03
2023-06-23T02:01:52.027Z,2.90
2023-06-23T02:06:55.219Z,2.90
2023-06-23T02:11:59.098Z,3.30
2023-06-23T02:17:03.141Z,3.67
2023-06-23T02:22:10.194Z,3.00
2023-06-23T02:27:13.780Z,3.00
2023-06-23T02:32:18.658Z,3.43
2023-06-23T02:37:25.060Z,3.57
2023-06-23T02:42:34.748Z,3.10
2023-06-23T02:47:39.408Z,3.90
2023-06-23T02:52:46.529Z,3.80
2023-06-23T02:57:51.468Z,3.30
2023-06-23T03:02:59.035Z,3.53
2023-06-23T03:08:02.885Z,3.60
2023-06-23T03:13:05.438Z,3.60
2023-06-23T03:18:18.735Z,3.33
2023-06-23T03:23:26.640Z,3.20
2023-06-23T03:28:30.932Z,3.70
2023-06-23T03:33:37.183Z,3.20
2023-06-23T03:38:45.986Z,3.37
2023-06-23T03:48:58.056Z,3.70
2023-06-23T03:54:02.060Z,3.47
2023-06-23T03:59:05.292Z,4.20
2023-06-23T04:04:09.253Z,4.20
2023-06-23T04:09:12.104Z,3.73
2023-06-23T04:14:15.323Z,4.07
2023-06-23T04:19:19.506Z,4.07
2023-06-23T04:24:23.078Z,4.30
2023-06-23T04:29:27.448Z,3.87
2023-06-23T04:34:30.141Z,4.23
2023-06-23T04:39:48.931Z,5.07
2023-06-23T04:44:54.805Z,4.55
2023-06-23T04:50:00.264Z,4.80
2023-06-23T04:55:04.531Z,4.50
2023-06-23T05:00:09.178Z,4.60
2023-06-23T05:05:12.622Z,5.13
2023-06-23T05:10:15.310Z,5.20
2023-06-23T05:15:19.418Z,5.13
2023-06-23T05:20:22.671Z,6.57
2023-06-23T05:25:31.494Z,5.63
2023-06-23T05:35:38.671Z,7.27
2023-06-23T05:40:41.332Z,6.03
2023-06-23T05:45:44.506Z,6.47
2023-06-23T05:50:49.006Z,6.20
2023-06-23T05:56:02.332Z,6.47
2023-06-23T06:01:09.677Z,6.90
2023-06-23T06:06:12.937Z,7.23
2023-06-23T06:11:18.361Z,6.10
2023-06-23T06:16:21.324Z,8.70
2023-06-23T06:21:24.194Z,6.50
2023-06-23T06:26:27.119Z,6.00
2023-06-23T06:31:30.693Z,6.67
2023-06-23T06:36:34.481Z,6.43
2023-06-23T06:41:37.672Z,6.80
2023-06-23T06:46:42.228Z,6.43
2023-06-23T06:51:45.782Z,6.00
2023-06-23T06:56:48.256Z,6.77
2023-06-23T07:01:51.230Z,7.00
2023-06-23T07:06:55.328Z,7.37
2023-06-23T07:12:00.859Z,7.47
2023-06-23T07:17:03.368Z,8.73
2023-06-23T07:22:06.274Z,8.90
2023-06-23T07:27:09.715Z,8.90
2023-06-23T07:32:13.208Z,9.00
2023-06-23T07:37:15.902Z,9.47
2023-06-23T07:42:18.407Z,9.80
2023-06-23T07:47:21.139Z,10.07
2023-06-23T07:52:23.662Z,9.77
2023-06-23T07:57:26.786Z,10.00
2023-06-23T08:02:29.345Z,10.13
2023-06-23T08:07:32.032Z,10.07
2023-06-23T08:12:34.781Z,10.13
2023-06-23T08:17:37.516Z,10.13
2023-06-23T08:22:41.996Z,10.50
2023-06-23T08:27:44.629Z,10.73
2023-06-23T08:32:47.092Z,10.83
2023-06-23T08:37:49.829Z,9.73
2023-06-23T08:42:52.369Z,10.57
2023-06-23T08:47:58.264Z,9.43
2023-06-23T08:53:01.050Z,9.80
2023-06-23T08:58:04.095Z,9.53
2023-06-23T09:03:06.775Z,8.10
2023-06-23T09:08:10.393Z,7.27
2023-06-23T09:13:24.674Z,6.43
2023-06-23T09:18:27.217Z,6.57
2023-06-23T09:23:35.123Z,6.43
2023-06-23T09:28:38.580Z,5.60
2023-06-23T09:33:49.400Z,6.70
2023-06-23T09:38:54.246Z,5.57
2023-06-23T09:43:58.965Z,6.33
2023-06-23T09:49:02.171Z,5.87
2023-06-23T09:54:08.041Z,6.03
2023-06-23T09:59:10.508Z,6.23
2023-06-23T10:04:13.101Z,6.27
2023-06-23T10:09:16.672Z,6.13
2023-06-23T10:14:19.892Z,6.03
2023-06-23T10:19:22.629Z,5.77
2023-06-23T10:24:25.325Z,6.93
2023-06-23T10:29:29.170Z,8.40
2023-06-23T10:34:33.273Z,6.87
2023-06-23T10:39:37.313Z,7.70
2023-06-23T10:44:43.028Z,8.07
2023-06-23T10:49:46.648Z,7.63
2023-06-23T10:54:49.304Z,8.67
2023-06-23T11:00:07.419Z,8.73
2023-06-23T11:05:18.162Z,9.63
2023-06-23T11:10:22.094Z,7.73
2023-06-23T11:15:26.901Z,7.57
2023-06-23T11:20:31.432Z,8.10
2023-06-23T11:25:51.286Z,8.70
2023-06-23T11:31:05.404Z,7.47
2023-06-23T11:36:17.164Z,8.73
2023-06-23T11:41:27.324Z,9.97
2023-06-23T11:46:34.367Z,8.53
2023-06-23T11:51:36.980Z,8.70
2023-06-23T11:56:43.011Z,8.47
2023-06-23T12:01:45.690Z,8.43
2023-06-23T12:06:48.943Z,7.57
2023-06-23T12:11:53.127Z,8.70
2023-06-23T12:17:12.782Z,8.60
2023-06-23T12:22:19.750Z,9.63
2023-06-23T12:27:26.585Z,7.47
2023-06-23T12:32:32.550Z,8.43
2023-06-23T12:37:47.064Z,6.95
2023-06-23T12:42:49.644Z,7.00
2023-06-23T12:47:58.887Z,6.80
2023-06-23T12:53:01.477Z,6.83
2023-06-23T12:58:04.091Z,6.20
2023-06-23T13:03:08.679Z,6.80
2023-06-23T13:08:15.113Z,6.20
2023-06-23T13:13:17.666Z,6.87
2023-06-23T13:18:20.203Z,6.68
2023-06-23T13:23:22.771Z,6.25
2023-06-23T13:28:25.404Z,8.37
2023-06-23T13:33:27.979Z,6.10
2023-06-23T13:38:30.434Z,7.05
2023-06-23T13:43:32.902Z,6.75
2023-06-23T13:48:35.473Z,7.40
2023-06-23T13:53:39.989Z,6.55
2023-06-23T13:58:42.482Z,7.15
2023-06-23T14:03:45.164Z,7.55
2023-06-23T14:08:49.931Z,8.60
2023-06-23T14:13:52.581Z,8.40
2023-06-23T14:18:55.223Z,8.77
2023-06-23T14:23:57.708Z,8.63
2023-06-23T14:29:00.345Z,9.40
2023-06-23T14:34:04.712Z,8.10
2023-06-23T14:39:08.662Z,8.13
2023-06-23T14:44:11.095Z,8.02
2023-06-23T14:49:13.679Z,7.57
2023-06-23T14:54:16.171Z,9.18
2023-06-23T14:59:18.712Z,7.40
2023-06-23T15:04:21.256Z,7.72
2023-06-23T15:09:23.829Z,8.23
2023-06-23T15:14:26.393Z,9.13
2023-06-23T15:19:28.869Z,9.60
2023-06-23T15:24:31.426Z,8.65
2023-06-23T15:29:33.906Z,9.70
2023-06-23T15:34:36.445Z,10.68
2023-06-23T15:39:42.280Z,10.02
2023-06-23T15:44:45.885Z,11.35
2023-06-23T15:49:48.584Z,11.93
2023-06-23T15:54:51.409Z,11.25
2023-06-23T15:59:54.010Z,11.30
2023-06-23T16:04:56.680Z,10.88
2023-06-23T16:09:59.345Z,10.23
2023-06-23T16:15:01.768Z,9.60
2023-06-23T16:20:08.042Z,10.15
2023-06-23T16:25:10.479Z,11.57
2023-06-23T16:30:12.952Z,11.10
2023-06-23T16:35:15.425Z,11.40
2023-06-23T16:40:17.936Z,10.13
2023-06-23T16:45:20.369Z,10.38
2023-06-23T16:50:22.889Z,9.85
2023-06-23T16:55:25.280Z,9.63
2023-06-23T17:00:29.563Z,10.75
2023-06-23T17:05:32.157Z,10.55
2023-06-23T17:10:34.913Z,9.07
2023-06-23T17:15:37.440Z,9.48
2023-06-23T17:20:39.865Z,8.88
2023-06-23T17:25:42.428Z,9.85
2023-06-23T17:30:46.159Z,8.98
2023-06-23T17:35:48.677Z,10.68
2023-06-23T17:40:51.163Z,10.00
2023-06-23T17:45:53.568Z,9.63
2023-06-23T17:50:56.016Z,9.52
2023-06-23T17:56:00.746Z,9.63
2023-06-23T18:01:04.714Z,9.00
2023-06-23T18:06:07.432Z,9.93
2023-06-23T18:11:10.405Z,9.23
2023-06-23T18:16:12.930Z,8.18
2023-06-23T18:21:17.725Z,9.77
2023-06-23T18:26:20.321Z,10.75
2023-06-23T18:31:22.857Z,13.57
2023-06-23T18:36:25.386Z,11.38
2023-06-23T18:41:27.890Z,11.90
2023-06-23T18:46:31.956Z,11.80
2023-06-23T18:51:39.411Z,10.80
2023-06-23T18:56:42.315Z,11.55
2023-06-23T19:01:44.843Z,11.70
2023-06-23T19:06:47.453Z,10.85
2023-06-23T19:11:50.003Z,12.38
2023-06-23T19:16:52.492Z,12.50
2023-06-23T19:21:57.585Z,12.18
2023-06-23T19:26:59.980Z,14.43
2023-06-23T19:32:02.676Z,13.88
2023-06-23T19:37:05.628Z,12.40
2023-06-23T19:42:08.487Z,11.68
2023-06-23T19:47:11.252Z,12.45
2023-06-23T19:52:16.411Z,13.88
2023-06-23T19:57:18.918Z,15.40
2023-06-23T20:02:22.083Z,13.70
2023-06-23T20:07:24.929Z,12.82
2023-06-23T20:12:27.585Z,14.18
2023-06-23T20:17:30.204Z,14.03
2023-06-23T20:22:32.709Z,13.07
2023-06-23T20:27:35.224Z,12.40
2023-06-23T20:32:39.860Z,12.52
2023-06-23T20:37:42.816Z,12.30
2023-06-23T20:42:45.226Z,12.32
2023-06-23T20:47:48.108Z,13.15
2023-06-23T20:52:55.895Z,13.30
2023-06-23T20:57:58.301Z,12.15
2023-06-23T21:03:00.817Z,11.77
2023-06-23T21:08:03.294Z,12.63
2023-06-23T21:13:05.866Z,11.75
2023-06-23T21:18:08.537Z,10.57
2023-06-23T21:23:13.244Z,11.27
2023-06-23T21:28:16.633Z,12.43
2023-06-23T21:33:19.090Z,10.77
2023-06-23T21:38:21.626Z,11.97
2023-06-23T21:43:24.037Z,11.10
2023-06-23T21:48:29.119Z,10.57
2023-06-23T21:53:31.548Z,10.37
2023-06-23T21:58:34.397Z,10.67
2023-06-23T22:03:38.305Z,10.87
2023-06-23T22:08:40.905Z,10.57
2023-06-23T22:13:43.276Z,10.00
2023-06-23T22:18:49.781Z,10.10
2023-06-23T22:23:52.886Z,11.50
2023-06-23T22:28:55.956Z,10.73
2023-06-23T22:33:58.390Z,10.23
2023-06-23T22:39:01.057Z,11.00
2023-06-23T22:44:03.516Z,10.00
2023-06-23T22:49:07.470Z,9.67
2023-06-23T22:54:09.843Z,9.20
2023-06-23T22:59:12.213Z,9.80
2023-06-23T23:04:14.957Z,11.10
2023-06-23T23:09:17.550Z,8.97
2023-06-23T23:14:20.412Z,9.03
2023-06-23T23:19:23.010Z,9.20
2023-06-23T23:24:25.368Z,8.70
2023-06-23T23:29:27.992Z,8.60
2023-06-23T23:34:33.613Z,7.83
2023-06-23T23:39:36.175Z,9.10
2023-06-23T23:44:38.567Z,8.90
2023-06-23T23:49:41.027Z,7.37
2023-06-23T23:54:43.396Z,8.07
2023-06-23T23:59:46.283Z,7.87
